createdAt,value
2022-07-29T00:01:20.371Z,76.83
2022-07-29T00:03:49.005Z,76.87
2022-07-29T00:06:17.895Z,76.90
2022-07-29T00:08:49.012Z,77.05
2022-07-29T00:11:20.154Z,77.25
2022-07-29T00:13:51.202Z,77.41
2022-07-29T00:16:19.411Z,77.62
2022-07-29T00:18:47.510Z,77.60
2022-07-29T00:21:15.588Z,77.72
2022-07-29T00:23:43.577Z,77.96
2022-07-29T00:26:11.747Z,78.22
2022-07-29T00:28:39.764Z,78.45
2022-07-29T00:31:09.212Z,78.64
2022-07-29T00:33:37.495Z,78.71
2022-07-29T00:36:05.651Z,78.88
2022-07-29T00:38:33.706Z,79.01
2022-07-29T00:41:01.692Z,79.08
2022-07-29T00:43:29.617Z,79.28
2022-07-29T00:46:00.049Z,79.20
2022-07-29T00:48:28.299Z,79.42
2022-07-29T00:50:58.518Z,79.49
2022-07-29T00:53:26.778Z,79.68
2022-07-29T00:55:56.327Z,79.75
2022-07-29T00:58:24.873Z,79.85
2022-07-29T01:00:55.779Z,79.95
2022-07-29T01:03:23.947Z,80.04
2022-07-29T01:05:53.349Z,80.11
2022-07-29T01:08:22.569Z,80.11
2022-07-29T01:10:51.864Z,80.11
2022-07-29T01:13:20.250Z,80.06
2022-07-29T01:15:54.074Z,80.11
2022-07-29T01:18:47.888Z,80.29
2022-07-29T01:21:31.725Z,80.47
2022-07-29T01:24:27.574Z,80.41
2022-07-29T01:27:24.951Z,80.44
2022-07-29T01:30:03.840Z,80.54
2022-07-29T01:32:37.965Z,80.64
2022-07-29T01:35:33.105Z,80.53
2022-07-29T01:38:21.427Z,80.57
2022-07-29T01:40:56.464Z,80.45
2022-07-29T01:43:45.157Z,80.54
2022-07-29T01:46:27.806Z,80.46
2022-07-29T01:49:03.152Z,80.35
2022-07-29T01:51:55.932Z,80.48
2022-07-29T01:54:38.731Z,80.45
2022-07-29T01:57:14.795Z,80.47
2022-07-29T01:59:44.504Z,80.40
2022-07-29T02:02:15.016Z,80.44
2022-07-29T02:04:45.442Z,80.56
2022-07-29T02:07:17.824Z,80.48
2022-07-29T02:09:47.738Z,80.38
2022-07-29T02:12:21.980Z,80.22
2022-07-29T02:14:54.042Z,80.03
2022-07-29T02:17:43.879Z,79.98
2022-07-29T02:20:13.503Z,80.04
2022-07-29T02:22:44.147Z,79.91
2022-07-29T02:25:14.026Z,79.69
2022-07-29T02:27:44.082Z,79.45
2022-07-29T02:30:13.688Z,79.35
2022-07-29T02:32:44.215Z,79.44
2022-07-29T02:35:17.452Z,79.38
2022-07-29T02:38:07.034Z,79.39
2022-07-29T02:40:38.743Z,79.10
2022-07-29T02:43:08.988Z,79.17
2022-07-29T02:45:38.389Z,79.15
2022-07-29T02:48:16.442Z,78.95
2022-07-29T02:51:00.714Z,78.83
2022-07-29T02:53:31.066Z,78.77
2022-07-29T02:56:07.513Z,78.60
2022-07-29T02:58:41.618Z,78.65
2022-07-29T03:01:26.234Z,78.68
2022-07-29T03:03:56.030Z,78.59
2022-07-29T03:06:28.183Z,78.68
2022-07-29T03:09:13.054Z,78.73
2022-07-29T03:11:50.075Z,78.72
2022-07-29T03:14:21.402Z,78.79
2022-07-29T03:16:50.472Z,78.83
2022-07-29T03:19:21.050Z,78.81
2022-07-29T03:21:49.645Z,78.89
2022-07-29T03:24:27.644Z,78.79
2022-07-29T03:26:57.502Z,78.83
2022-07-29T03:29:33.230Z,78.94
2022-07-29T03:32:07.933Z,78.95
2022-07-29T03:34:38.090Z,78.99
2022-07-29T03:37:08.781Z,79.07
2022-07-29T03:39:42.437Z,79.10
2022-07-29T03:42:13.618Z,79.15
2022-07-29T03:44:45.143Z,79.19
2022-07-29T03:47:15.862Z,79.20
2022-07-29T03:49:45.760Z,79.24
2022-07-29T03:52:14.571Z,79.36
2022-07-29T03:54:42.701Z,79.42
2022-07-29T03:57:12.693Z,79.47
2022-07-29T03:59:41.681Z,79.44
2022-07-29T04:02:12.257Z,79.65
2022-07-29T04:04:40.445Z,80.24
2022-07-29T04:07:12.398Z,80.52
2022-07-29T04:09:40.534Z,81.31
2022-07-29T04:12:08.701Z,81.65
2022-07-29T04:14:37.238Z,81.75
2022-07-29T04:17:06.027Z,82.05
2022-07-29T04:19:37.321Z,82.34
2022-07-29T04:22:05.614Z,82.84
2022-07-29T04:24:33.746Z,83.76
2022-07-29T04:27:01.500Z,83.11
2022-07-29T04:29:29.719Z,83.64
2022-07-29T04:31:57.532Z,84.61
2022-07-29T04:34:27.949Z,84.19
2022-07-29T04:36:56.967Z,83.89
2022-07-29T04:39:25.760Z,84.21
2022-07-29T04:41:58.003Z,84.41
2022-07-29T04:44:30.526Z,85.61
2022-07-29T04:46:58.982Z,85.38
2022-07-29T04:49:27.483Z,86.09
2022-07-29T04:51:55.600Z,86.01
2022-07-29T04:54:23.685Z,86.65
2022-07-29T04:56:52.939Z,86.98
2022-07-29T04:59:21.777Z,86.64
2022-07-29T05:01:51.185Z,86.68
2022-07-29T05:04:20.305Z,86.33
2022-07-29T05:06:48.704Z,86.12
2022-07-29T05:09:16.547Z,86.59
2022-07-29T05:11:48.017Z,86.01
2022-07-29T05:14:16.410Z,86.59
2022-07-29T05:16:44.790Z,87.18
2022-07-29T05:19:14.569Z,87.43
2022-07-29T05:21:43.007Z,87.10
2022-07-29T05:24:11.251Z,87.31
2022-07-29T05:26:39.636Z,87.54
2022-07-29T05:29:08.114Z,87.50
2022-07-29T05:31:56.208Z,88.01
2022-07-29T05:34:24.855Z,87.63
2022-07-29T05:36:52.914Z,88.89
2022-07-29T05:39:21.422Z,89.44
2022-07-29T05:41:51.984Z,89.13
2022-07-29T05:44:20.394Z,88.43
2022-07-29T05:46:53.422Z,86.30
2022-07-29T05:49:27.025Z,87.09
2022-07-29T05:51:55.546Z,87.64
2022-07-29T05:54:26.715Z,86.61
2022-07-29T05:56:54.926Z,85.85
2022-07-29T05:59:27.042Z,86.34
2022-07-29T06:01:58.677Z,85.79
2022-07-29T06:04:27.495Z,85.70
2022-07-29T06:06:56.603Z,85.55
2022-07-29T06:09:25.000Z,84.50
2022-07-29T06:11:53.687Z,84.22
2022-07-29T06:14:24.580Z,83.97
2022-07-29T06:16:55.478Z,84.26
2022-07-29T06:19:23.431Z,84.46
2022-07-29T06:21:52.013Z,83.86
2022-07-29T06:24:20.387Z,83.92
2022-07-29T06:26:48.960Z,83.85
2022-07-29T06:29:19.677Z,83.23
2022-07-29T06:31:47.751Z,82.93
2022-07-29T06:34:16.624Z,83.50
2022-07-29T06:36:46.145Z,83.24
2022-07-29T06:39:14.448Z,83.97
2022-07-29T06:41:42.611Z,82.97
2022-07-29T06:44:11.535Z,82.36
2022-07-29T06:46:39.612Z,82.15
2022-07-29T06:49:07.888Z,81.65
2022-07-29T06:51:37.071Z,81.26
2022-07-29T06:54:06.650Z,81.46
2022-07-29T06:56:40.296Z,80.91
2022-07-29T06:59:10.305Z,81.23
2022-07-29T07:01:40.382Z,80.63
2022-07-29T07:04:12.420Z,80.39
2022-07-29T07:06:40.786Z,80.01
2022-07-29T07:09:09.099Z,80.33
2022-07-29T07:11:37.277Z,80.62
2022-07-29T07:14:05.716Z,80.50
2022-07-29T07:16:35.883Z,80.13
2022-07-29T07:19:04.143Z,80.71
2022-07-29T07:21:33.777Z,79.97
2022-07-29T07:24:02.065Z,79.51
2022-07-29T07:26:30.521Z,79.97
2022-07-29T07:29:01.403Z,79.85
2022-07-29T07:31:30.251Z,78.78
2022-07-29T07:34:01.720Z,77.50
2022-07-29T07:36:30.094Z,77.66
2022-07-29T07:38:59.157Z,76.56
2022-07-29T07:41:28.170Z,75.53
2022-07-29T07:44:04.105Z,75.55
2022-07-29T07:46:32.688Z,75.34
2022-07-29T07:49:01.190Z,75.19
2022-07-29T07:51:29.972Z,76.44
2022-07-29T07:54:01.930Z,75.36
2022-07-29T07:56:35.129Z,75.33
2022-07-29T07:59:06.080Z,75.69
2022-07-29T08:01:47.875Z,75.34
2022-07-29T08:04:28.248Z,74.46
2022-07-29T08:06:58.893Z,73.33
2022-07-29T08:09:30.286Z,75.04
2022-07-29T08:12:04.953Z,74.25
2022-07-29T08:14:36.517Z,74.28
2022-07-29T08:17:05.089Z,73.46
2022-07-29T08:19:33.333Z,73.62
2022-07-29T08:22:09.206Z,73.12
2022-07-29T08:24:57.327Z,73.90
2022-07-29T08:27:43.094Z,73.42
2022-07-29T08:30:12.407Z,74.62
2022-07-29T08:32:53.798Z,73.87
2022-07-29T08:35:24.155Z,74.00
2022-07-29T08:37:53.678Z,73.92
2022-07-29T08:40:32.335Z,73.39
2022-07-29T08:43:06.554Z,72.37
2022-07-29T08:45:58.986Z,72.00
2022-07-29T08:48:27.198Z,73.00
2022-07-29T08:50:57.686Z,72.60
2022-07-29T08:53:28.109Z,72.96
2022-07-29T08:56:00.908Z,72.17
2022-07-29T08:58:32.382Z,71.88
2022-07-29T09:01:12.497Z,71.26
2022-07-29T09:03:42.605Z,71.18
2022-07-29T09:06:14.083Z,70.35
2022-07-29T09:08:42.505Z,70.41
2022-07-29T09:11:15.762Z,71.41
2022-07-29T09:13:44.058Z,70.96
2022-07-29T09:16:12.475Z,70.59
2022-07-29T09:18:43.405Z,69.16
2022-07-29T09:21:35.179Z,70.70
2022-07-29T09:24:15.186Z,71.05
2022-07-29T09:26:44.860Z,70.62
2022-07-29T09:29:17.878Z,71.03
2022-07-29T09:31:48.809Z,70.30
2022-07-29T09:34:23.079Z,70.42
2022-07-29T09:36:53.504Z,70.70
2022-07-29T09:39:36.958Z,71.42
2022-07-29T09:42:07.369Z,71.76
2022-07-29T09:44:50.830Z,71.97
2022-07-29T09:47:27.188Z,70.78
2022-07-29T09:50:00.689Z,70.59
2022-07-29T09:52:34.984Z,70.16
2022-07-29T09:55:17.938Z,68.78
2022-07-29T09:57:47.750Z,69.18
2022-07-29T10:00:19.020Z,69.12
2022-07-29T10:02:48.733Z,69.47
2022-07-29T10:05:21.457Z,69.59
2022-07-29T10:07:57.769Z,70.34
2022-07-29T10:10:27.488Z,70.73
2022-07-29T10:13:03.089Z,70.22
2022-07-29T10:15:41.979Z,70.41
2022-07-29T10:18:10.878Z,69.32
2022-07-29T10:20:39.709Z,70.15
2022-07-29T10:23:07.964Z,70.66
2022-07-29T10:25:39.685Z,69.48
2022-07-29T10:28:09.694Z,70.42
2022-07-29T10:30:51.460Z,69.64
2022-07-29T10:33:27.798Z,69.87
2022-07-29T10:36:47.588Z,69.23
2022-07-29T10:39:44.328Z,68.28
2022-07-29T10:42:33.519Z,68.07
2022-07-29T10:45:07.483Z,69.11
2022-07-29T10:47:35.824Z,68.79
2022-07-29T10:50:09.486Z,68.52
2022-07-29T10:52:59.611Z,66.95
2022-07-29T10:55:45.460Z,66.22
2022-07-29T10:58:26.660Z,66.19
2022-07-29T11:00:58.504Z,65.91
2022-07-29T11:03:50.801Z,65.25
2022-07-29T11:06:26.162Z,66.05
2022-07-29T11:09:37.460Z,66.36
2022-07-29T11:12:37.818Z,66.20
2022-07-29T11:15:22.665Z,66.22
2022-07-29T11:17:59.483Z,65.34
2022-07-29T11:20:43.618Z,66.14
2022-07-29T11:23:36.568Z,64.82
2022-07-29T11:26:23.216Z,64.82
2022-07-29T11:29:16.291Z,63.79
2022-07-29T11:31:52.624Z,63.54
2022-07-29T11:34:34.720Z,64.06
2022-07-29T11:37:15.106Z,64.98
2022-07-29T11:40:10.941Z,63.95
2022-07-29T11:42:41.994Z,62.05
2022-07-29T11:45:41.355Z,61.19
2022-07-29T11:48:29.821Z,61.43
2022-07-29T11:50:55.383Z,61.79
2022-07-29T11:53:29.090Z,61.74
2022-07-29T11:56:02.759Z,59.64
2022-07-29T11:58:32.698Z,58.81
2022-07-29T12:01:04.091Z,59.33
2022-07-29T12:03:37.206Z,57.26
2022-07-29T12:06:18.388Z,58.33
2022-07-29T12:08:49.282Z,59.25
2022-07-29T12:11:23.571Z,58.21
2022-07-29T12:13:52.390Z,56.78
2022-07-29T12:16:25.414Z,56.78
2022-07-29T12:19:03.767Z,56.35
2022-07-29T12:21:52.252Z,56.22
2022-07-29T12:24:26.809Z,55.79
2022-07-29T12:27:00.205Z,53.46
2022-07-29T12:29:34.969Z,54.31
2022-07-29T12:32:05.273Z,56.05
2022-07-29T12:34:33.978Z,56.73
2022-07-29T12:37:03.073Z,56.06
2022-07-29T12:39:31.168Z,55.09
2022-07-29T12:42:13.974Z,55.10
2022-07-29T12:44:54.421Z,55.17
2022-07-29T12:47:22.985Z,53.18
2022-07-29T12:49:52.089Z,53.01
2022-07-29T12:52:29.827Z,54.57
2022-07-29T12:54:58.550Z,54.39
2022-07-29T12:57:27.708Z,53.50
2022-07-29T13:00:11.950Z,54.52
2022-07-29T13:02:41.807Z,55.67
2022-07-29T13:05:12.161Z,55.18
2022-07-29T13:08:29.548Z,55.11
2022-07-29T13:10:30.358Z,53.55
2022-07-29T13:13:12.047Z,54.04
2022-07-29T13:15:45.340Z,53.87
2022-07-29T13:18:39.178Z,51.58
2022-07-29T13:21:16.072Z,52.18
2022-07-29T13:23:44.566Z,52.43
2022-07-29T13:26:13.545Z,53.62
2022-07-29T13:28:44.002Z,53.57
2022-07-29T13:31:12.660Z,53.33
2022-07-29T13:33:40.794Z,53.46
2022-07-29T13:36:11.954Z,53.50
2022-07-29T13:38:39.941Z,51.67
2022-07-29T13:41:07.972Z,52.20
2022-07-29T13:43:36.352Z,52.20
2022-07-29T13:46:04.618Z,51.57
2022-07-29T13:48:32.561Z,52.03
2022-07-29T13:51:00.545Z,51.46
2022-07-29T13:53:29.649Z,51.74
2022-07-29T13:55:58.124Z,51.10
2022-07-29T13:58:26.099Z,51.05
2022-07-29T14:00:54.111Z,51.82
2022-07-29T14:03:22.043Z,51.48
2022-07-29T14:05:49.904Z,51.74
2022-07-29T14:08:18.094Z,50.26
2022-07-29T14:10:46.083Z,51.33
2022-07-29T14:13:25.244Z,51.03
2022-07-29T14:15:54.603Z,50.81
2022-07-29T14:18:25.588Z,49.83
2022-07-29T14:20:53.706Z,50.67
2022-07-29T14:23:22.143Z,50.26
2022-07-29T14:25:50.141Z,50.45
2022-07-29T14:28:18.424Z,49.48
2022-07-29T14:30:46.524Z,50.20
2022-07-29T14:33:14.942Z,49.69
2022-07-29T14:35:43.278Z,49.65
2022-07-29T14:38:11.428Z,49.12
2022-07-29T14:40:39.620Z,49.01
2022-07-29T14:43:07.692Z,49.74
2022-07-29T14:45:35.644Z,49.60
2022-07-29T14:48:03.703Z,48.73
2022-07-29T14:50:32.379Z,49.33
2022-07-29T14:53:03.203Z,48.82
2022-07-29T14:55:31.476Z,48.84
2022-07-29T14:58:08.659Z,48.85
2022-07-29T15:00:39.293Z,49.68
2022-07-29T15:03:11.341Z,49.25
2022-07-29T15:05:40.091Z,49.06
2022-07-29T15:08:09.262Z,48.93
2022-07-29T15:10:37.911Z,48.49
2022-07-29T15:13:06.191Z,48.96
2022-07-29T15:15:34.534Z,48.37
2022-07-29T15:18:02.688Z,48.28
2022-07-29T15:20:30.836Z,47.64
2022-07-29T15:22:59.150Z,47.30
2022-07-29T15:25:27.953Z,46.99
2022-07-29T15:28:01.244Z,46.96
2022-07-29T15:30:34.644Z,46.58
2022-07-29T15:33:04.510Z,46.27
2022-07-29T15:35:40.083Z,45.98
2022-07-29T15:38:09.060Z,45.54
2022-07-29T15:40:42.362Z,46.25
2022-07-29T15:43:10.404Z,46.61
2022-07-29T15:45:40.637Z,46.10
2022-07-29T15:48:10.088Z,46.04
2022-07-29T15:50:42.803Z,45.86
2022-07-29T15:53:15.316Z,45.64
2022-07-29T15:55:44.537Z,45.89
2022-07-29T15:58:12.900Z,46.81
2022-07-29T16:00:41.610Z,46.25
2022-07-29T16:03:15.264Z,46.96
2022-07-29T16:05:43.719Z,46.97
2022-07-29T16:08:11.859Z,47.11
2022-07-29T16:10:40.039Z,46.54
2022-07-29T16:13:11.189Z,46.80
2022-07-29T16:16:01.936Z,47.19
2022-07-29T16:18:30.944Z,47.75
2022-07-29T16:20:59.114Z,48.06
2022-07-29T16:23:27.159Z,47.69
2022-07-29T16:26:00.012Z,48.51
2022-07-29T16:28:30.700Z,48.57
2022-07-29T16:30:58.635Z,49.02
2022-07-29T16:33:27.062Z,49.36
2022-07-29T16:35:55.118Z,49.57
2022-07-29T16:38:25.241Z,49.54
2022-07-29T16:40:53.726Z,49.89
2022-07-29T16:43:23.992Z,49.86
2022-07-29T16:45:52.064Z,50.36
2022-07-29T16:48:20.307Z,50.75
2022-07-29T16:50:48.505Z,50.82
2022-07-29T16:53:16.447Z,51.35
2022-07-29T16:55:44.401Z,51.19
2022-07-29T16:58:12.544Z,50.88
2022-07-29T17:00:43.263Z,51.43
2022-07-29T17:03:11.305Z,51.83
2022-07-29T17:05:52.538Z,51.75
2022-07-29T17:08:23.011Z,51.72
2022-07-29T17:10:51.309Z,52.10
2022-07-29T17:13:22.775Z,52.22
2022-07-29T17:15:58.802Z,52.54
2022-07-29T17:18:38.015Z,52.69
2022-07-29T17:21:06.097Z,53.15
2022-07-29T17:23:37.382Z,53.22
2022-07-29T17:26:08.072Z,53.28
2022-07-29T17:28:36.473Z,53.36
2022-07-29T17:31:05.024Z,53.64
2022-07-29T17:33:33.519Z,53.91
2022-07-29T17:36:24.871Z,53.75
2022-07-29T17:39:01.126Z,54.31
2022-07-29T17:41:31.128Z,54.91
2022-07-29T17:43:59.434Z,55.20
2022-07-29T17:46:28.205Z,55.08
2022-07-29T17:48:57.723Z,54.69
2022-07-29T17:51:27.734Z,55.06
2022-07-29T17:53:59.733Z,55.23
2022-07-29T17:56:27.864Z,55.08
2022-07-29T17:58:56.440Z,55.33
2022-07-29T18:01:26.013Z,56.10
2022-07-29T18:03:57.182Z,56.91
2022-07-29T18:06:28.619Z,57.77
2022-07-29T18:08:59.003Z,57.94
2022-07-29T18:11:28.735Z,58.27
2022-07-29T18:14:02.547Z,58.16
2022-07-29T18:16:31.048Z,57.81
2022-07-29T18:19:02.892Z,57.49
2022-07-29T18:21:41.080Z,57.71
2022-07-29T18:24:29.486Z,57.86
2022-07-29T18:26:58.422Z,58.28
2022-07-29T18:29:29.151Z,58.62
2022-07-29T18:31:59.959Z,58.51
2022-07-29T18:34:32.144Z,58.56
2022-07-29T18:37:02.504Z,58.84
2022-07-29T18:39:33.679Z,58.78
2022-07-29T18:42:05.334Z,58.91
2022-07-29T18:44:33.896Z,59.23
2022-07-29T18:47:12.041Z,59.16
2022-07-29T18:49:42.996Z,59.04
2022-07-29T18:52:11.097Z,59.16
2022-07-29T18:54:40.168Z,59.35
2022-07-29T18:57:55.305Z,59.63
2022-07-29T18:59:57.589Z,59.47
2022-07-29T19:02:29.004Z,59.48
2022-07-29T19:04:59.645Z,59.49
2022-07-29T19:07:30.768Z,59.76
2022-07-29T19:09:58.749Z,60.04
2022-07-29T19:12:27.527Z,60.31
2022-07-29T19:14:58.941Z,60.23
2022-07-29T19:17:29.978Z,60.40
2022-07-29T19:19:58.548Z,60.60
2022-07-29T19:22:26.795Z,60.69
2022-07-29T19:24:54.870Z,60.62
2022-07-29T19:27:23.243Z,60.67
2022-07-29T19:29:51.251Z,60.54
2022-07-29T19:32:24.771Z,60.94
2022-07-29T19:35:11.854Z,61.01
2022-07-29T19:37:39.911Z,61.14
2022-07-29T19:40:09.934Z,61.38
2022-07-29T19:42:38.101Z,61.97
2022-07-29T19:45:15.168Z,63.07
2022-07-29T19:47:46.972Z,63.70
2022-07-29T19:50:15.900Z,64.57
2022-07-29T19:52:45.390Z,65.25
2022-07-29T19:55:16.859Z,66.17
2022-07-29T19:57:52.789Z,66.51
2022-07-29T20:00:24.396Z,67.32
2022-07-29T20:02:52.905Z,68.64
2022-07-29T20:05:27.937Z,69.69
2022-07-29T20:07:59.918Z,70.25
2022-07-29T20:10:30.262Z,70.85
2022-07-29T20:13:01.230Z,71.30
2022-07-29T20:15:29.663Z,71.62
2022-07-29T20:17:58.107Z,71.73
2022-07-29T20:20:27.628Z,72.24
2022-07-29T20:22:56.125Z,72.71
2022-07-29T20:25:24.499Z,73.14
2022-07-29T20:27:52.802Z,73.78
2022-07-29T20:30:24.887Z,74.41
2022-07-29T20:32:55.776Z,74.85
2022-07-29T20:35:23.706Z,75.37
2022-07-29T20:37:56.406Z,75.74
2022-07-29T20:40:26.841Z,76.23
2022-07-29T20:43:03.777Z,76.69
2022-07-29T20:45:31.947Z,77.07
2022-07-29T20:48:00.080Z,77.60
2022-07-29T20:50:29.790Z,77.89
2022-07-29T20:52:58.080Z,78.16
2022-07-29T20:55:26.476Z,78.29
2022-07-29T20:57:54.676Z,78.80
2022-07-29T21:00:23.083Z,79.39
2022-07-29T21:02:56.648Z,80.05
2022-07-29T21:05:25.157Z,80.37
2022-07-29T21:08:01.249Z,80.91
2022-07-29T21:10:29.909Z,81.67
2022-07-29T21:12:58.025Z,82.05
2022-07-29T21:15:27.865Z,82.44
2022-07-29T21:18:03.905Z,82.49
2022-07-29T21:20:32.130Z,82.86
2022-07-29T21:23:01.494Z,83.35
2022-07-29T21:25:34.578Z,83.81
2022-07-29T21:28:21.312Z,84.33
2022-07-29T21:30:50.129Z,84.73
2022-07-29T21:33:20.952Z,85.20
2022-07-29T21:38:40.584Z,85.82
2022-07-29T21:41:12.756Z,86.24
2022-07-29T21:43:42.389Z,86.73
2022-07-29T21:46:10.679Z,86.98
2022-07-29T21:48:44.387Z,87.39
2022-07-29T21:51:12.836Z,87.65
2022-07-29T21:53:41.561Z,88.31
2022-07-29T21:56:14.755Z,88.42
2022-07-29T21:58:43.408Z,88.67
2022-07-29T22:01:11.855Z,89.09
2022-07-29T22:03:42.992Z,89.17
2022-07-29T22:06:16.625Z,88.96
2022-07-29T22:08:47.806Z,89.20
2022-07-29T22:11:16.162Z,89.17
2022-07-29T22:13:46.881Z,89.02
2022-07-29T22:16:15.092Z,89.46
2022-07-29T22:18:49.804Z,89.76
2022-07-29T22:21:18.188Z,90.04
2022-07-29T22:23:46.370Z,90.18
2022-07-29T22:26:14.776Z,90.59
2022-07-29T22:28:42.698Z,90.89
2022-07-29T22:31:10.835Z,91.14
2022-07-29T22:33:41.813Z,91.54
2022-07-29T22:36:12.932Z,91.99
2022-07-29T22:38:40.942Z,92.13
2022-07-29T22:41:09.154Z,92.33
2022-07-29T22:43:40.127Z,92.60
2022-07-29T22:46:11.600Z,92.75
2022-07-29T22:48:40.180Z,92.86
2022-07-29T22:51:08.237Z,92.99
2022-07-29T22:53:37.639Z,93.29
2022-07-29T22:56:05.796Z,93.23
2022-07-29T22:58:37.468Z,93.46
2022-07-29T23:01:09.080Z,93.80
2022-07-29T23:03:39.327Z,94.04
2022-07-29T23:06:07.631Z,94.19
2022-07-29T23:08:35.936Z,94.28
2022-07-29T23:11:06.121Z,94.50
2022-07-29T23:13:34.817Z,94.81
2022-07-29T23:16:03.205Z,94.88
2022-07-29T23:18:33.728Z,95.24
2022-07-29T23:21:02.121Z,95.37
2022-07-29T23:23:32.503Z,95.48
2022-07-29T23:26:00.706Z,95.68
2022-07-29T23:28:28.900Z,95.68
2022-07-29T23:30:57.009Z,95.53
2022-07-29T23:33:25.237Z,95.81
2022-07-29T23:35:53.449Z,95.93
2022-07-29T23:38:21.866Z,96.09
2022-07-29T23:40:52.108Z,96.23
2022-07-29T23:43:20.145Z,96.42
2022-07-29T23:45:48.683Z,96.60
2022-07-29T23:48:17.218Z,96.65
2022-07-29T23:50:45.383Z,96.79
2022-07-29T23:53:13.357Z,96.94
2022-07-29T23:55:41.422Z,97.23
2022-07-29T23:58:09.299Z,97.11
